createdAt,value
2019-03-31T00:00:07.246Z,77.42
2019-03-31T00:01:17.187Z,77.42
2019-03-31T00:02:27.114Z,77.51
2019-03-31T00:03:37.040Z,77.04
2019-03-31T00:04:46.959Z,77.42
2019-03-31T00:05:56.896Z,77.51
2019-03-31T00:07:06.869Z,76.19
2019-03-31T00:08:16.822Z,76.48
2019-03-31T00:09:26.745Z,77.42
2019-03-31T00:10:36.437Z,77.33
2019-03-31T00:11:46.112Z,77.23
2019-03-31T00:12:56.037Z,77.23
2019-03-31T00:14:05.958Z,77.42
2019-03-31T00:15:15.890Z,76.95
2019-03-31T00:16:25.806Z,77.23
2019-03-31T00:17:35.724Z,77.42
2019-03-31T00:18:45.640Z,77.8
2019-03-31T00:19:55.563Z,77.61
2019-03-31T00:21:05.578Z,77.61
2019-03-31T00:22:15.503Z,77.99
2019-03-31T00:23:25.462Z,78.27
2019-03-31T00:24:35.479Z,79.41
2019-03-31T00:25:45.414Z,79.88
2019-03-31T00:26:55.346Z,80.55
2019-03-31T00:28:05.267Z,81.12
2019-03-31T00:29:15.192Z,82.15
2019-03-31T00:30:24.853Z,81.4
2019-03-31T00:31:34.779Z,81.68
2019-03-31T00:32:44.706Z,81.87
2019-03-31T00:33:54.623Z,82.44
2019-03-31T00:35:04.542Z,82.44
2019-03-31T00:36:14.226Z,83.58
2019-03-31T00:37:24.141Z,82.44
2019-03-31T00:38:34.064Z,82.63
2019-03-31T00:39:43.991Z,82.91
2019-03-31T00:40:53.911Z,82.82
2019-03-31T00:42:03.887Z,82.91
2019-03-31T00:43:13.586Z,82.91
2019-03-31T00:44:23.509Z,82.82
2019-03-31T00:45:33.481Z,83.2
2019-03-31T00:46:43.404Z,83.67
2019-03-31T00:47:53.069Z,83.01
2019-03-31T00:49:03.002Z,83.48
2019-03-31T00:50:12.922Z,83.86
2019-03-31T00:51:22.839Z,83.39
2019-03-31T00:52:32.842Z,84.23
2019-03-31T00:53:42.613Z,83.95
2019-03-31T00:54:52.280Z,83.95
2019-03-31T00:56:02.205Z,83.29
2019-03-31T00:57:12.167Z,83.01
2019-03-31T00:58:22.094Z,82.91
2019-03-31T00:59:32.162Z,82.82
2019-03-31T01:00:42.085Z,82.63
2019-03-31T01:01:52.016Z,82.63
2019-03-31T01:03:01.935Z,81.87
2019-03-31T01:04:11.602Z,82.63
2019-03-31T01:05:21.527Z,82.25
2019-03-31T01:06:31.446Z,82.59
2019-03-31T01:07:41.365Z,82.63
2019-03-31T01:08:51.282Z,83.06
2019-03-31T01:10:01.212Z,83.06
2019-03-31T01:11:11.150Z,83.91
2019-03-31T01:12:21.089Z,83.34
2019-03-31T01:13:31.004Z,83.44
2019-03-31T01:14:40.930Z,82.97
2019-03-31T01:15:50.847Z,82.97
2019-03-31T01:17:00.818Z,83.06
2019-03-31T01:18:10.753Z,83.06
2019-03-31T01:19:20.428Z,83.76
2019-03-31T01:20:30.356Z,83.86
2019-03-31T01:21:40.279Z,83.63
2019-03-31T01:22:50.246Z,84.86
2019-03-31T01:24:00.165Z,84.67
2019-03-31T01:25:10.083Z,84.95
2019-03-31T01:26:20.000Z,84.86
2019-03-31T01:27:29.924Z,84.77
2019-03-31T01:28:39.948Z,84.29
2019-03-31T01:29:49.865Z,84.01
2019-03-31T01:30:59.778Z,84.67
2019-03-31T01:32:09.706Z,84.81
2019-03-31T01:33:19.636Z,85.28
2019-03-31T01:34:29.556Z,84.77
2019-03-31T01:35:39.472Z,84.9
2019-03-31T01:36:49.401Z,84.61
2019-03-31T01:37:59.320Z,85.61
2019-03-31T01:39:09.237Z,84.86
2019-03-31T01:40:19.237Z,84.52
2019-03-31T01:41:29.153Z,85.57
2019-03-31T01:42:39.143Z,85.85
2019-03-31T01:43:49.073Z,85.09
2019-03-31T01:44:58.989Z,84.52
2019-03-31T01:46:08.917Z,84.67
2019-03-31T01:47:18.846Z,84.67
2019-03-31T01:48:28.842Z,84.1
2019-03-31T01:49:38.827Z,83.82
2019-03-31T01:50:48.750Z,83.95
2019-03-31T01:51:58.762Z,83.44
2019-03-31T01:53:08.684Z,83.82
2019-03-31T01:54:18.601Z,84.29
2019-03-31T01:55:28.534Z,83.53
2019-03-31T01:56:38.458Z,83.25
2019-03-31T01:57:50.146Z,82.68
2019-03-31T01:59:00.062Z,82.87
2019-03-31T02:00:09.982Z,82.59
2019-03-31T02:01:19.908Z,80.88
2019-03-31T02:02:29.872Z,80.51
2019-03-31T02:03:39.796Z,79.37
2019-03-31T02:04:49.479Z,78.71
2019-03-31T02:05:59.400Z,79.37
2019-03-31T02:07:09.065Z,78.23
2019-03-31T02:08:18.988Z,78.52
2019-03-31T02:09:28.655Z,79.09
2019-03-31T02:10:38.570Z,79.75
2019-03-31T02:11:48.507Z,79.18
2019-03-31T02:12:58.423Z,79.37
2019-03-31T02:14:08.342Z,78.14
2019-03-31T02:15:18.444Z,78.52
2019-03-31T02:16:28.375Z,78.52
2019-03-31T02:17:38.371Z,78.99
2019-03-31T02:18:48.296Z,78.99
2019-03-31T02:19:58.219Z,78.99
2019-03-31T02:21:08.145Z,78.42
2019-03-31T02:22:18.071Z,76.72
2019-03-31T02:23:28.000Z,75.87
2019-03-31T02:24:37.925Z,74.36
2019-03-31T02:25:47.889Z,75.68
2019-03-31T02:26:57.912Z,75.02
2019-03-31T02:28:07.850Z,73.79
2019-03-31T02:29:17.524Z,71.9
2019-03-31T02:30:27.517Z,71.9
2019-03-31T02:31:37.466Z,71.33
2019-03-31T02:32:47.525Z,71.04
2019-03-31T02:33:57.471Z,72.18
2019-03-31T02:35:07.489Z,72.56
2019-03-31T02:36:17.481Z,72.28
2019-03-31T02:37:27.516Z,71.52
2019-03-31T02:38:37.479Z,71.04
2019-03-31T02:39:47.414Z,69.25
2019-03-31T02:40:57.393Z,65.18
2019-03-31T02:42:07.323Z,64.8
2019-03-31T02:43:17.258Z,64.04
2019-03-31T02:44:27.235Z,64.23
2019-03-31T02:45:37.177Z,64.52
2019-03-31T02:46:47.150Z,63.67
2019-03-31T02:47:57.129Z,65.18
2019-03-31T02:49:07.063Z,65.75
2019-03-31T02:50:17.123Z,65.37
2019-03-31T02:51:27.067Z,64.23
2019-03-31T02:52:37.114Z,65.18
2019-03-31T02:53:47.050Z,66.13
2019-03-31T02:54:56.998Z,65.75
2019-03-31T02:56:06.934Z,66.41
2019-03-31T02:57:16.878Z,66.5
2019-03-31T02:58:26.815Z,66.31
2019-03-31T02:59:36.771Z,66.69
2019-03-31T03:00:46.702Z,67.07
2019-03-31T03:01:56.755Z,66.22
2019-03-31T03:03:06.686Z,66.5
2019-03-31T03:04:16.610Z,65.75
2019-03-31T03:05:26.312Z,64.8
2019-03-31T03:06:36.247Z,63.39
2019-03-31T03:07:46.272Z,62.34
2019-03-31T03:08:56.222Z,61.87
2019-03-31T03:10:06.165Z,61.4
2019-03-31T03:11:16.129Z,60.45
2019-03-31T03:12:26.059Z,60.17
2019-03-31T03:13:35.994Z,59.69
2019-03-31T03:14:45.921Z,60.17
2019-03-31T03:15:55.864Z,59.5
2019-03-31T03:17:05.806Z,59.98
2019-03-31T03:18:15.754Z,59.98
2019-03-31T03:19:25.709Z,59.41
2019-03-31T03:20:35.638Z,58.56
2019-03-31T03:21:45.575Z,58.75
2019-03-31T03:22:55.508Z,57.23
2019-03-31T03:24:05.445Z,56.57
2019-03-31T03:25:15.434Z,58.28
2019-03-31T03:26:25.373Z,57.33
2019-03-31T03:27:35.325Z,57.42
2019-03-31T03:28:45.262Z,57.9
2019-03-31T03:29:54.996Z,57.71
2019-03-31T03:31:13.788Z,57.71
2019-03-31T03:32:25.413Z,57.04
2019-03-31T03:33:35.403Z,56.67
2019-03-31T03:34:45.148Z,56.2
2019-03-31T03:35:55.158Z,54.21
2019-03-31T03:37:05.112Z,54.11
2019-03-31T03:38:14.801Z,54.39
2019-03-31T03:39:24.722Z,55.44
2019-03-31T03:40:34.646Z,55.91
2019-03-31T03:41:44.575Z,55.72
2019-03-31T03:42:54.309Z,54.39
2019-03-31T03:44:05.195Z,53.64
2019-03-31T03:45:15.116Z,53.92
2019-03-31T03:46:25.186Z,53.92
2019-03-31T03:47:35.263Z,53.92
2019-03-31T03:48:45.192Z,54.21
2019-03-31T03:49:55.353Z,55.91
2019-03-31T03:51:05.793Z,55.91
2019-03-31T03:52:15.762Z,56.2
2019-03-31T03:53:25.706Z,56.2
2019-03-31T03:54:35.416Z,56.16
2019-03-31T03:55:45.343Z,57.01
2019-03-31T03:56:55.285Z,58.15
2019-03-31T03:58:04.965Z,57.77
2019-03-31T03:59:14.902Z,58.06
2019-03-31T04:00:24.757Z,57.96
2019-03-31T04:01:34.726Z,57.11
2019-03-31T04:02:44.662Z,57.01
2019-03-31T04:03:54.611Z,56.54
2019-03-31T04:05:04.617Z,55.98
2019-03-31T04:06:14.672Z,55.98
2019-03-31T04:07:24.365Z,55.22
2019-03-31T04:08:34.304Z,55.5
2019-03-31T04:09:44.244Z,55.22
2019-03-31T04:10:54.181Z,54.55
2019-03-31T04:12:04.130Z,54.84
2019-03-31T04:13:14.152Z,54.93
2019-03-31T04:14:24.110Z,54.84
2019-03-31T04:15:34.054Z,55.22
2019-03-31T04:16:44.014Z,54.74
2019-03-31T04:17:54.029Z,54.46
2019-03-31T04:19:03.961Z,54.84
2019-03-31T04:20:13.920Z,55.22
2019-03-31T04:21:23.865Z,54.18
2019-03-31T04:22:33.805Z,54.55
2019-03-31T04:23:43.751Z,55.12
2019-03-31T04:24:53.804Z,55.12
2019-03-31T04:26:03.729Z,55.22
2019-03-31T04:27:13.417Z,54.93
2019-03-31T04:28:26.587Z,55.79
2019-03-31T04:29:36.580Z,57.01
2019-03-31T04:30:46.513Z,57.58
2019-03-31T04:31:56.560Z,56.54
2019-03-31T04:33:06.545Z,57.2
2019-03-31T04:34:16.502Z,57.74
2019-03-31T04:35:26.579Z,57.74
2019-03-31T04:36:36.636Z,57.55
2019-03-31T04:37:46.569Z,57.27
2019-03-31T04:38:59.999Z,56.89
2019-03-31T04:40:10.017Z,56.89
2019-03-31T04:41:19.956Z,55.85
2019-03-31T04:42:29.895Z,55.19
2019-03-31T04:43:39.819Z,54.15
2019-03-31T04:44:49.502Z,53.96
2019-03-31T04:45:59.437Z,53.49
2019-03-31T04:47:09.528Z,52.83
2019-03-31T04:48:19.215Z,52.29
2019-03-31T04:49:29.166Z,52.38
2019-03-31T04:50:39.096Z,51.53
2019-03-31T04:51:49.017Z,51.81
2019-03-31T04:52:58.990Z,52.57
2019-03-31T04:54:08.915Z,52
2019-03-31T04:55:18.848Z,51.25
2019-03-31T04:56:28.790Z,50.87
2019-03-31T04:57:38.710Z,50.87
2019-03-31T04:58:48.633Z,52.19
2019-03-31T04:59:58.548Z,53.05
2019-03-31T05:01:08.474Z,53.11
2019-03-31T05:02:18.404Z,53.11
2019-03-31T05:03:32.147Z,53.96
2019-03-31T05:04:42.198Z,53.96
2019-03-31T05:05:52.119Z,53.77
2019-03-31T05:07:02.150Z,53.87
2019-03-31T05:08:12.080Z,53.96
2019-03-31T05:09:22.000Z,54.06
2019-03-31T05:10:32.011Z,53.2
2019-03-31T05:11:41.937Z,52.92
2019-03-31T05:12:51.859Z,53.2
2019-03-31T05:14:01.777Z,52.83
2019-03-31T05:15:11.706Z,53.39
2019-03-31T05:16:21.637Z,53.3
2019-03-31T05:17:31.552Z,53.11
2019-03-31T05:18:43.400Z,53.49
2019-03-31T05:19:53.320Z,53.39
2019-03-31T05:21:03.314Z,53.02
2019-03-31T05:22:13.238Z,52.45
2019-03-31T05:23:22.900Z,51.88
2019-03-31T05:24:32.822Z,51.32
2019-03-31T05:25:42.739Z,51.22
2019-03-31T05:26:52.658Z,51.22
2019-03-31T05:28:02.627Z,50.09
2019-03-31T05:29:12.592Z,50.37
2019-03-31T05:30:22.550Z,50.37
2019-03-31T05:31:32.472Z,49.62
2019-03-31T05:32:42.264Z,48.97
2019-03-31T05:33:52.029Z,49.45
2019-03-31T05:35:01.952Z,49.83
2019-03-31T05:36:11.880Z,50.68
2019-03-31T05:37:21.876Z,49.83
2019-03-31T05:38:31.796Z,49.54
2019-03-31T05:39:41.847Z,49.45
2019-03-31T05:40:51.553Z,48.88
2019-03-31T05:42:01.482Z,49.73
2019-03-31T05:43:11.400Z,50.59
2019-03-31T05:44:21.317Z,50.59
2019-03-31T05:45:31.295Z,50.3
2019-03-31T05:46:41.214Z,49.83
2019-03-31T05:47:51.137Z,49.83
2019-03-31T05:49:01.154Z,49.45
2019-03-31T05:50:11.087Z,49.83
2019-03-31T05:51:21.010Z,49.92
2019-03-31T05:52:30.923Z,49.64
2019-03-31T05:53:40.917Z,50.11
2019-03-31T05:54:50.832Z,49.64
2019-03-31T05:56:00.830Z,49.64
2019-03-31T05:57:10.748Z,49.64
2019-03-31T05:58:20.175Z,49.92
2019-03-31T05:59:30.105Z,50.02
2019-03-31T06:00:39.805Z,49.54
2019-03-31T06:01:49.747Z,49.35
2019-03-31T06:02:59.782Z,49.54
2019-03-31T06:04:09.699Z,49.64
2019-03-31T06:05:19.611Z,50.49
2019-03-31T06:06:29.535Z,50.59
2019-03-31T06:07:42.373Z,50.4
2019-03-31T06:08:52.397Z,50.59
2019-03-31T06:10:02.312Z,50.96
2019-03-31T06:11:12.230Z,51.53
2019-03-31T06:12:22.156Z,51.91
2019-03-31T06:13:32.077Z,51.81
2019-03-31T06:14:41.741Z,51.62
2019-03-31T06:15:51.661Z,51.43
2019-03-31T06:17:01.324Z,51.34
2019-03-31T06:18:11.239Z,50.96
2019-03-31T06:19:21.155Z,51.72
2019-03-31T06:20:31.124Z,52.29
2019-03-31T06:21:41.046Z,52.95
2019-03-31T06:22:50.966Z,52.86
2019-03-31T06:24:00.887Z,53.14
2019-03-31T06:25:10.996Z,52.57
2019-03-31T06:26:20.714Z,52.76
2019-03-31T06:27:30.626Z,52.76
2019-03-31T06:28:40.549Z,53.89
2019-03-31T06:29:50.472Z,53.89
2019-03-31T06:31:00.385Z,53.05
2019-03-31T06:32:10.301Z,52.95
2019-03-31T06:33:20.242Z,52.95
2019-03-31T06:34:30.164Z,52.76
2019-03-31T06:35:54.405Z,53.23
2019-03-31T06:37:04.073Z,54.55
2019-03-31T06:38:14.099Z,53.89
2019-03-31T06:39:24.019Z,53.05
2019-03-31T06:40:37.138Z,53.23
2019-03-31T06:41:47.060Z,53.52
2019-03-31T06:42:56.825Z,52.48
2019-03-31T06:44:06.741Z,51.91
2019-03-31T06:45:16.673Z,51.43
2019-03-31T06:46:26.612Z,51.91
2019-03-31T06:47:36.530Z,51.81
2019-03-31T06:48:46.198Z,51.25
2019-03-31T06:49:56.115Z,51.06
2019-03-31T06:51:06.033Z,51.72
2019-03-31T06:52:15.705Z,52.98
2019-03-31T06:53:25.620Z,53.55
2019-03-31T06:54:35.593Z,53.26
2019-03-31T06:55:45.530Z,53.8
2019-03-31T06:56:55.447Z,52.98
2019-03-31T06:58:05.378Z,51.15
2019-03-31T06:59:15.294Z,51.37
2019-03-31T07:00:25.216Z,51.37
2019-03-31T07:01:35.147Z,51.75
2019-03-31T07:02:45.068Z,53.07
2019-03-31T07:03:54.985Z,52.88
2019-03-31T07:05:04.910Z,51.93
2019-03-31T07:06:14.927Z,50.14
2019-03-31T07:07:26.452Z,50.42
2019-03-31T07:08:36.138Z,50.8
2019-03-31T07:09:46.052Z,51.56
2019-03-31T07:10:55.985Z,50.14
2019-03-31T07:12:06.012Z,50.23
2019-03-31T07:13:15.932Z,49.85
2019-03-31T07:14:25.861Z,49.38
2019-03-31T07:15:35.786Z,49.38
2019-03-31T07:16:45.471Z,50.14
2019-03-31T07:17:55.490Z,49.66
2019-03-31T07:19:05.411Z,49.95
2019-03-31T07:20:15.363Z,50.23
2019-03-31T07:21:25.341Z,50.71
2019-03-31T07:22:35.259Z,51.46
2019-03-31T07:23:45.188Z,50.71
2019-03-31T07:24:55.107Z,50.61
2019-03-31T07:26:05.023Z,51.37
2019-03-31T07:27:14.942Z,50.52
2019-03-31T07:28:24.862Z,49.38
2019-03-31T07:29:34.664Z,50.14
2019-03-31T07:30:44.331Z,50.61
2019-03-31T07:31:54.256Z,50.33
2019-03-31T07:33:04.174Z,51.37
2019-03-31T07:34:14.103Z,51.37
2019-03-31T07:35:24.122Z,50.99
2019-03-31T07:36:34.048Z,50.33
2019-03-31T07:37:50.128Z,51.37
2019-03-31T07:39:00.233Z,51.56
2019-03-31T07:40:11.170Z,50.61
2019-03-31T07:41:22.623Z,50.33
2019-03-31T07:42:34.102Z,50.33
2019-03-31T07:43:44.037Z,50.52
2019-03-31T07:44:53.958Z,49.85
2019-03-31T07:46:03.881Z,48.91
2019-03-31T07:47:13.851Z,49.76
2019-03-31T07:48:23.785Z,50.42
2019-03-31T07:49:33.705Z,50.52
2019-03-31T07:50:43.729Z,50.61
2019-03-31T07:51:53.655Z,50.14
2019-03-31T07:53:03.583Z,50.61
2019-03-31T07:54:13.518Z,50.9
2019-03-31T07:55:23.437Z,50.61
2019-03-31T07:56:33.408Z,49.95
2019-03-31T07:57:43.394Z,50.8
2019-03-31T07:58:53.495Z,51.84
2019-03-31T08:00:03.657Z,50.04
2019-03-31T08:01:13.681Z,50.14
2019-03-31T08:02:23.605Z,51.28
2019-03-31T08:03:33.522Z,50.23
2019-03-31T08:04:43.554Z,49.85
2019-03-31T08:05:53.467Z,49.57
2019-03-31T08:07:03.385Z,49.1
2019-03-31T08:08:13.311Z,48.74
2019-03-31T08:09:23.232Z,48.06
2019-03-31T08:10:33.280Z,48.44
2019-03-31T08:11:43.203Z,48.06
2019-03-31T08:12:53.119Z,48.15
2019-03-31T08:14:03.048Z,48.93
2019-03-31T08:15:12.977Z,49.5
2019-03-31T08:16:22.916Z,48.55
2019-03-31T08:17:32.863Z,49.38
2019-03-31T08:18:45.622Z,48.36
2019-03-31T08:19:55.548Z,49.88
2019-03-31T08:21:05.537Z,48.91
2019-03-31T08:22:15.259Z,48.44
2019-03-31T08:23:25.183Z,48.36
2019-03-31T08:24:34.872Z,48.65
2019-03-31T08:25:44.786Z,48.25
2019-03-31T08:26:54.717Z,48.18
2019-03-31T08:28:08.356Z,49.41
2019-03-31T08:29:18.272Z,48.93
2019-03-31T08:30:28.198Z,48.74
2019-03-31T08:31:38.122Z,49.31
2019-03-31T08:32:48.040Z,49.03
2019-03-31T08:33:57.953Z,47.99
2019-03-31T08:35:07.896Z,48.55
2019-03-31T08:36:17.818Z,48.93
2019-03-31T08:37:27.735Z,48.65
2019-03-31T08:38:37.668Z,47.99
2019-03-31T08:39:47.453Z,46.85
2019-03-31T08:40:57.381Z,49.22
2019-03-31T08:42:07.310Z,47.99
2019-03-31T08:43:17.239Z,47.61
2019-03-31T08:44:27.169Z,48.18
2019-03-31T08:45:37.088Z,48.65
2019-03-31T08:46:47.003Z,49.31
2019-03-31T08:47:56.928Z,47.89
2019-03-31T08:49:06.849Z,46.19
2019-03-31T08:50:16.845Z,47.8
2019-03-31T08:51:26.760Z,47.51
2019-03-31T08:52:36.677Z,46.66
2019-03-31T08:53:46.601Z,48.84
2019-03-31T08:54:56.516Z,48.08
2019-03-31T08:56:08.663Z,48.93
2019-03-31T08:57:18.819Z,47.7
2019-03-31T08:58:28.733Z,47.61
2019-03-31T08:59:38.647Z,48.36
2019-03-31T09:00:48.580Z,48.46
2019-03-31T09:01:58.503Z,48.93
2019-03-31T09:03:10.999Z,49.43
2019-03-31T09:04:20.917Z,47.72
2019-03-31T09:05:30.853Z,46.59
2019-03-31T09:06:40.769Z,45.36
2019-03-31T09:07:50.718Z,44.41
2019-03-31T09:09:00.741Z,46.02
2019-03-31T09:10:10.672Z,47.25
2019-03-31T09:11:20.595Z,47.44
2019-03-31T09:12:30.511Z,47.53
2019-03-31T09:13:40.430Z,47.16
2019-03-31T09:14:50.403Z,47.91
2019-03-31T09:16:00.330Z,47.44
2019-03-31T09:17:10.266Z,45.83
2019-03-31T09:18:20.179Z,44.13
2019-03-31T09:19:30.190Z,44.41
2019-03-31T09:20:40.221Z,45.26
2019-03-31T09:21:50.150Z,45.55
2019-03-31T09:23:00.068Z,46.12
2019-03-31T09:24:09.741Z,47.25
2019-03-31T09:25:19.676Z,47.06
2019-03-31T09:26:29.750Z,47.25
2019-03-31T09:27:39.671Z,47.53
2019-03-31T09:28:49.599Z,46.69
2019-03-31T09:29:59.530Z,45.64
2019-03-31T09:31:09.559Z,47.25
2019-03-31T09:32:19.530Z,47.25
2019-03-31T09:33:29.453Z,45.64
2019-03-31T09:34:42.344Z,44.51
2019-03-31T09:35:52.268Z,43.94
2019-03-31T09:37:02.244Z,43.94
2019-03-31T09:38:12.272Z,44.22
2019-03-31T09:39:22.195Z,46.12
2019-03-31T09:40:32.125Z,45.07
2019-03-31T09:41:42.050Z,43.27
2019-03-31T09:42:51.966Z,44.34
2019-03-31T09:44:02.029Z,46.31
2019-03-31T09:45:11.954Z,46.5
2019-03-31T09:46:21.885Z,46.97
2019-03-31T09:47:31.857Z,44.98
2019-03-31T09:48:41.778Z,45.83
2019-03-31T09:49:51.748Z,44.51
2019-03-31T09:51:01.423Z,46.12
2019-03-31T09:52:11.351Z,46.12
2019-03-31T09:53:21.284Z,46.59
2019-03-31T09:54:31.204Z,45.86
2019-03-31T09:55:41.373Z,45.74
2019-03-31T09:56:51.290Z,47.85
2019-03-31T09:58:01.206Z,46.5
2019-03-31T09:59:11.146Z,46.12
2019-03-31T10:00:21.073Z,47.37
2019-03-31T10:01:30.996Z,47.47
2019-03-31T10:02:40.922Z,44.72
2019-03-31T10:03:50.847Z,44.53
2019-03-31T10:05:00.764Z,43.3
2019-03-31T10:06:13.611Z,43.77
2019-03-31T10:07:37.247Z,44.53
2019-03-31T10:08:47.168Z,45.17
2019-03-31T10:09:57.087Z,44.53
2019-03-31T10:11:07.021Z,42.73
2019-03-31T10:12:16.801Z,41.59
2019-03-31T10:13:26.755Z,43.49
2019-03-31T10:14:36.688Z,43.39
2019-03-31T10:15:46.612Z,46.04
2019-03-31T10:16:56.532Z,44.53
2019-03-31T10:18:06.456Z,43.01
2019-03-31T10:19:16.377Z,43.77
2019-03-31T10:20:26.324Z,45.1
2019-03-31T10:21:39.177Z,45
2019-03-31T10:22:49.105Z,44.79
2019-03-31T10:23:59.076Z,46.8
2019-03-31T10:25:09.002Z,44.53
2019-03-31T10:26:33.492Z,41.59
2019-03-31T10:27:43.418Z,42.16
2019-03-31T10:28:53.336Z,41.69
2019-03-31T10:30:03.256Z,43.01
2019-03-31T10:31:13.190Z,43.87
2019-03-31T10:32:23.115Z,42.44
2019-03-31T10:33:33.057Z,41.69
2019-03-31T10:34:42.991Z,41.88
2019-03-31T10:35:52.919Z,40.74
2019-03-31T10:37:02.888Z,41.97
2019-03-31T10:38:12.812Z,41.69
2019-03-31T10:39:22.732Z,42.44
2019-03-31T10:40:32.798Z,43.11
2019-03-31T10:41:42.717Z,42.07
2019-03-31T10:42:52.647Z,43.87
2019-03-31T10:44:02.570Z,45
2019-03-31T10:45:12.491Z,43.87
2019-03-31T10:46:22.412Z,42.25
2019-03-31T10:47:32.341Z,41.88
2019-03-31T10:48:42.256Z,42.44
2019-03-31T10:49:52.173Z,43.2
2019-03-31T10:51:02.093Z,43.01
2019-03-31T10:52:12.012Z,41.02
2019-03-31T10:53:21.932Z,41.5
2019-03-31T10:54:31.707Z,42.63
2019-03-31T10:55:41.633Z,42.16
2019-03-31T10:56:51.566Z,41.69
2019-03-31T10:58:01.592Z,41.69
2019-03-31T10:59:11.514Z,42.16
2019-03-31T11:00:21.445Z,43.2
2019-03-31T11:01:31.382Z,42.63
2019-03-31T11:02:41.310Z,41.5
2019-03-31T11:03:51.233Z,41.78
2019-03-31T11:05:01.246Z,40.64
2019-03-31T11:06:11.184Z,39.13
2019-03-31T11:07:20.866Z,39.32
2019-03-31T11:08:30.796Z,38.84
2019-03-31T11:09:40.716Z,38.96
2019-03-31T11:10:50.641Z,39.7
2019-03-31T11:12:00.630Z,40.28
2019-03-31T11:13:10.555Z,42.18
2019-03-31T11:14:20.489Z,42.18
2019-03-31T11:15:30.466Z,41.8
2019-03-31T11:16:40.389Z,40.57
2019-03-31T11:17:50.320Z,40
2019-03-31T11:19:00.309Z,41.82
2019-03-31T11:20:10.236Z,40.02
2019-03-31T11:21:20.268Z,38.89
2019-03-31T11:22:30.194Z,38.41
2019-03-31T11:23:39.868Z,39.92
2019-03-31T11:24:49.944Z,38.81
2019-03-31T11:25:59.868Z,39.37
2019-03-31T11:27:09.800Z,38.14
2019-03-31T11:28:19.727Z,37.19
2019-03-31T11:29:29.403Z,37.48
2019-03-31T11:30:39.328Z,37.01
2019-03-31T11:31:49.370Z,37.29
2019-03-31T11:32:59.500Z,36.05
2019-03-31T11:34:12.617Z,35.79
2019-03-31T11:35:24.730Z,34.17
2019-03-31T11:36:34.655Z,35.13
2019-03-31T11:37:44.583Z,35.03
2019-03-31T11:38:54.622Z,34.94
2019-03-31T11:40:04.553Z,36.07
2019-03-31T11:41:14.482Z,35.22
2019-03-31T11:42:24.409Z,34.95
2019-03-31T11:43:34.427Z,35.61
2019-03-31T11:44:44.360Z,36.28
2019-03-31T11:45:54.295Z,33.81
2019-03-31T11:47:04.302Z,32.01
2019-03-31T11:48:14.238Z,32.29
2019-03-31T11:49:24.206Z,33.62
2019-03-31T11:50:34.199Z,34
2019-03-31T11:51:44.132Z,33.15
2019-03-31T11:52:54.075Z,34.09
2019-03-31T11:54:03.758Z,35.61
2019-03-31T11:55:13.439Z,34.5
2019-03-31T11:56:23.372Z,33.17
2019-03-31T11:57:33.308Z,35.33
2019-03-31T11:58:43.260Z,36.09
2019-03-31T11:59:53.203Z,36
2019-03-31T12:01:03.299Z,33.72
2019-03-31T12:02:26.279Z,32.88
2019-03-31T12:03:36.816Z,32.77
2019-03-31T12:04:46.772Z,35.52
2019-03-31T12:05:56.716Z,34.86
2019-03-31T12:07:06.403Z,36.21
2019-03-31T12:08:30.124Z,35.25
2019-03-31T12:09:40.067Z,32.78
2019-03-31T12:10:50.000Z,33.56
2019-03-31T12:11:59.990Z,34.32
2019-03-31T12:13:09.931Z,31.85
2019-03-31T12:14:19.863Z,31.07
2019-03-31T12:15:29.801Z,32.59
2019-03-31T12:16:39.739Z,32.4
2019-03-31T12:17:49.674Z,32.1
2019-03-31T12:18:59.733Z,31.63
2019-03-31T12:20:09.665Z,33.81
2019-03-31T12:21:19.592Z,34
2019-03-31T12:22:29.562Z,32.01
2019-03-31T12:23:39.307Z,32.4
2019-03-31T12:24:49.286Z,33.81
2019-03-31T12:25:59.221Z,31.55
2019-03-31T12:27:09.173Z,31.18
2019-03-31T12:28:19.121Z,31.56
2019-03-31T12:29:29.068Z,31.55
2019-03-31T12:30:39.116Z,30.23
2019-03-31T12:31:49.058Z,29.28
2019-03-31T12:32:58.990Z,30.99
2019-03-31T12:34:08.957Z,31.58
2019-03-31T12:35:18.896Z,30.25
2019-03-31T12:36:28.934Z,29.09
2019-03-31T12:37:45.311Z,28.92
2019-03-31T12:38:56.481Z,28.82
2019-03-31T12:40:06.429Z,27.12
2019-03-31T12:41:18.237Z,26.55
2019-03-31T12:42:28.230Z,26.36
2019-03-31T12:43:38.161Z,26.07
2019-03-31T12:44:48.095Z,26.07
2019-03-31T12:45:58.112Z,26.17
2019-03-31T12:47:08.062Z,27.98
2019-03-31T12:48:18.002Z,28.72
2019-03-31T12:49:27.940Z,29.09
2019-03-31T12:50:37.902Z,30.03
2019-03-31T12:51:47.868Z,31.17
2019-03-31T12:53:00.427Z,32.4
2019-03-31T12:54:10.506Z,31.64
2019-03-31T12:55:20.452Z,31.18
2019-03-31T12:56:30.390Z,30.63
2019-03-31T12:57:40.320Z,29.77
2019-03-31T12:58:50.261Z,30.04
2019-03-31T13:00:00.363Z,30.71
2019-03-31T13:01:10.109Z,30.41
2019-03-31T13:02:20.043Z,31.17
2019-03-31T13:03:29.977Z,30.9
2019-03-31T13:04:39.909Z,29.75
2019-03-31T13:05:49.947Z,29.77
2019-03-31T13:06:59.881Z,28.34
2019-03-31T13:08:09.817Z,28.08
2019-03-31T13:09:19.751Z,29.22
2019-03-31T13:10:29.439Z,29.77
2019-03-31T13:11:39.625Z,28.82
2019-03-31T13:12:53.183Z,29.58
2019-03-31T13:14:03.115Z,32.14
2019-03-31T13:15:13.059Z,31.66
2019-03-31T13:16:22.993Z,31.37
2019-03-31T13:17:32.785Z,30.43
2019-03-31T13:18:42.802Z,29.47
2019-03-31T13:19:52.495Z,30.71
2019-03-31T13:21:02.436Z,30.6
2019-03-31T13:22:12.387Z,29.19
2019-03-31T13:23:22.324Z,30.34
2019-03-31T13:24:32.259Z,29.85
2019-03-31T13:25:42.197Z,29.75
2019-03-31T13:26:52.132Z,30.23
2019-03-31T13:28:05.279Z,31.17
2019-03-31T13:29:15.585Z,32.03
2019-03-31T13:30:25.527Z,31.74
2019-03-31T13:31:35.217Z,31.64
2019-03-31T13:32:45.150Z,31.17
2019-03-31T13:33:55.115Z,31.55
2019-03-31T13:35:08.173Z,32.97
2019-03-31T13:36:18.319Z,32.97
2019-03-31T13:37:28.008Z,32.88
2019-03-31T13:38:37.947Z,33.26
2019-03-31T13:39:47.878Z,32.97
2019-03-31T13:40:57.917Z,31.36
2019-03-31T13:42:07.854Z,30.88
2019-03-31T13:43:17.789Z,32.69
2019-03-31T13:44:27.755Z,31.72
2019-03-31T13:45:37.689Z,31.93
2019-03-31T13:46:47.730Z,32.29
2019-03-31T13:48:01.034Z,32.31
2019-03-31T13:49:10.984Z,31.82
2019-03-31T13:50:20.915Z,31.25
2019-03-31T13:51:30.925Z,31.42
2019-03-31T13:52:40.960Z,32.65
2019-03-31T13:53:50.892Z,34.46
2019-03-31T13:55:00.818Z,35.49
2019-03-31T13:56:11.146Z,36.05
2019-03-31T13:57:24.738Z,37.29
2019-03-31T13:58:39.272Z,37.86
2019-03-31T13:59:57.811Z,37.48
2019-03-31T14:01:08.119Z,37.95
2019-03-31T14:02:17.955Z,36.72
2019-03-31T14:03:27.640Z,35.49
2019-03-31T14:04:51.630Z,36.53
2019-03-31T14:06:01.928Z,36.8
2019-03-31T14:07:11.858Z,37.37
2019-03-31T14:08:28.239Z,37.74
2019-03-31T14:09:38.220Z,37.74
2019-03-31T14:10:48.155Z,38.6
2019-03-31T14:11:58.081Z,39.07
2019-03-31T14:13:08.009Z,39.76
2019-03-31T14:14:17.934Z,38.62
2019-03-31T14:15:27.986Z,38.62
2019-03-31T14:16:37.911Z,39
2019-03-31T14:17:47.844Z,40.42
2019-03-31T14:18:57.779Z,38.64
2019-03-31T14:20:07.711Z,37.02
2019-03-31T14:21:17.751Z,36.17
2019-03-31T14:22:27.682Z,35.79
2019-03-31T14:23:37.653Z,36.65
2019-03-31T14:24:49.243Z,35.31
2019-03-31T14:25:59.172Z,35.69
2019-03-31T14:27:09.197Z,34.95
2019-03-31T14:28:18.886Z,34.57
2019-03-31T14:29:28.895Z,36
2019-03-31T14:30:38.820Z,35.25
2019-03-31T14:31:51.812Z,33.73
2019-03-31T14:33:02.047Z,34.11
2019-03-31T14:34:11.985Z,32.69
2019-03-31T14:35:21.934Z,33.65
2019-03-31T14:36:31.878Z,32.7
2019-03-31T14:37:41.870Z,32.7
2019-03-31T14:38:51.807Z,32.23
2019-03-31T14:40:01.740Z,31.2
2019-03-31T14:41:11.678Z,30.91
2019-03-31T14:42:21.615Z,29.68
2019-03-31T14:43:31.565Z,30.99
2019-03-31T14:44:41.600Z,31.37
2019-03-31T14:45:51.538Z,31.58
2019-03-31T14:47:01.479Z,32.15
2019-03-31T14:48:11.435Z,32.34
2019-03-31T14:49:21.373Z,31.29
2019-03-31T14:50:33.600Z,30.44
2019-03-31T14:51:43.538Z,30.99
2019-03-31T14:52:53.246Z,30.71
2019-03-31T14:54:03.189Z,31.47
2019-03-31T14:55:13.139Z,31.56
2019-03-31T14:56:23.159Z,31.74
2019-03-31T14:57:33.091Z,31.64
2019-03-31T14:58:43.025Z,31.36
2019-03-31T14:59:52.957Z,31.93
2019-03-31T15:01:17.296Z,31.07
2019-03-31T15:02:29.041Z,31.26
2019-03-31T15:03:38.982Z,31.45
2019-03-31T15:04:48.934Z,32.12
2019-03-31T15:05:58.870Z,32.12
2019-03-31T15:07:08.816Z,32.88